createdAt,value
2022-11-24T00:00:30.299Z,35.46
2022-11-24T00:02:56.987Z,35.39
2022-11-24T00:05:23.768Z,35.46
2022-11-24T00:07:51.080Z,35.34
2022-11-24T00:10:18.962Z,35.27
2022-11-24T00:12:45.578Z,35.39
2022-11-24T00:15:12.145Z,35.45
2022-11-24T00:17:38.736Z,35.46
2022-11-24T00:20:06.002Z,35.46
2022-11-24T00:22:32.729Z,35.26
2022-11-24T00:24:59.403Z,35.51
2022-11-24T00:27:26.032Z,35.36
2022-11-24T00:29:52.644Z,35.48
2022-11-24T00:32:19.169Z,35.42
2022-11-24T00:34:47.259Z,35.50
2022-11-24T00:37:13.820Z,35.46
2022-11-24T00:39:40.797Z,35.65
2022-11-24T00:42:07.336Z,35.37
2022-11-24T00:44:34.202Z,35.60
2022-11-24T00:47:00.955Z,35.57
2022-11-24T00:49:27.741Z,35.53
2022-11-24T00:51:54.305Z,35.45
2022-11-24T00:54:21.050Z,35.50
2022-11-24T00:56:47.568Z,35.42
2022-11-24T00:59:14.226Z,35.60
2022-11-24T01:01:42.384Z,35.21
2022-11-24T01:04:09.146Z,35.47
2022-11-24T01:06:36.503Z,35.43
2022-11-24T01:09:03.817Z,35.78
2022-11-24T01:11:53.973Z,35.46
2022-11-24T01:14:23.053Z,35.70
2022-11-24T01:16:50.000Z,35.80
2022-11-24T01:19:16.752Z,35.81
2022-11-24T01:21:43.281Z,35.79
2022-11-24T01:24:11.004Z,35.54
2022-11-24T01:26:37.858Z,35.86
2022-11-24T01:29:04.561Z,35.80
2022-11-24T01:31:32.648Z,35.76
2022-11-24T01:33:59.718Z,35.65
2022-11-24T01:36:27.657Z,35.89
2022-11-24T01:38:54.555Z,35.90
2022-11-24T01:41:24.100Z,35.97
2022-11-24T01:43:52.122Z,35.86
2022-11-24T01:46:34.894Z,36.11
2022-11-24T01:49:19.048Z,35.95
2022-11-24T01:51:56.703Z,35.99
2022-11-24T01:54:30.655Z,36.06
2022-11-24T01:57:01.912Z,35.98
2022-11-24T01:59:28.864Z,35.86
2022-11-24T02:01:56.708Z,35.88
2022-11-24T02:04:27.256Z,36.08
2022-11-24T02:06:54.300Z,36.11
2022-11-24T02:09:28.489Z,35.98
2022-11-24T02:11:55.866Z,36.01
2022-11-24T02:14:23.740Z,36.15
2022-11-24T02:16:51.309Z,36.23
2022-11-24T02:19:39.871Z,36.12
2022-11-24T02:22:21.464Z,36.09
2022-11-24T02:24:52.394Z,36.24
2022-11-24T02:27:19.468Z,36.19
2022-11-24T02:29:46.252Z,36.14
2022-11-24T02:32:12.821Z,35.90
2022-11-24T02:34:39.904Z,36.42
2022-11-24T02:37:07.608Z,36.25
2022-11-24T02:39:35.181Z,36.23
2022-11-24T02:42:06.286Z,36.38
2022-11-24T02:44:35.824Z,35.98
2022-11-24T02:47:05.084Z,36.29
2022-11-24T02:49:31.707Z,36.39
2022-11-24T02:51:58.998Z,36.23
2022-11-24T02:54:26.292Z,36.18
2022-11-24T02:56:52.993Z,36.31
2022-11-24T02:59:19.627Z,36.47
2022-11-24T03:01:46.261Z,36.25
2022-11-24T03:04:12.907Z,36.57
2022-11-24T03:06:39.838Z,36.40
2022-11-24T03:09:06.828Z,36.40
2022-11-24T03:11:33.414Z,36.50
2022-11-24T03:14:00.544Z,36.33
2022-11-24T03:16:27.482Z,36.35
2022-11-24T03:18:54.166Z,36.31
2022-11-24T03:21:20.698Z,36.42
2022-11-24T03:23:47.374Z,36.52
2022-11-24T03:26:16.272Z,36.15
2022-11-24T03:28:42.945Z,36.39
2022-11-24T03:31:10.180Z,36.43
2022-11-24T03:33:37.700Z,36.35
2022-11-24T03:36:05.860Z,36.35
2022-11-24T03:38:33.424Z,36.37
2022-11-24T03:40:59.938Z,36.34
2022-11-24T03:43:26.817Z,36.48
2022-11-24T03:45:53.358Z,36.43
2022-11-24T03:48:22.700Z,36.26
2022-11-24T03:50:56.949Z,36.54
2022-11-24T03:53:24.886Z,36.59
2022-11-24T03:55:52.174Z,36.26
2022-11-24T03:58:19.812Z,36.45
2022-11-24T04:00:48.770Z,36.43
2022-11-24T04:03:15.790Z,36.30
2022-11-24T04:05:42.350Z,36.41
2022-11-24T04:08:08.984Z,36.46
2022-11-24T04:10:37.306Z,36.33
2022-11-24T04:13:04.996Z,36.26
2022-11-24T04:15:31.568Z,36.25
2022-11-24T04:17:58.683Z,36.14
2022-11-24T04:20:25.252Z,36.18
2022-11-24T04:22:51.988Z,36.17
2022-11-24T04:25:18.638Z,36.12
2022-11-24T04:27:45.643Z,35.99
2022-11-24T04:30:12.388Z,35.85
2022-11-24T04:32:39.325Z,35.98
2022-11-24T04:35:06.232Z,35.58
2022-11-24T04:37:34.229Z,35.43
2022-11-24T04:40:00.745Z,35.55
2022-11-24T04:42:28.234Z,35.44
2022-11-24T04:44:55.294Z,35.34
2022-11-24T04:47:23.765Z,35.42
2022-11-24T04:49:50.789Z,35.12
2022-11-24T04:52:19.458Z,35.35
2022-11-24T04:54:46.796Z,34.81
2022-11-24T04:57:17.248Z,34.84
2022-11-24T04:59:44.099Z,34.88
2022-11-24T05:02:10.826Z,34.88
2022-11-24T05:04:38.041Z,34.88
2022-11-24T05:07:04.930Z,34.50
2022-11-24T05:09:55.294Z,34.31
2022-11-24T05:12:21.092Z,34.29
2022-11-24T05:14:47.830Z,34.23
2022-11-24T05:17:14.384Z,34.32
2022-11-24T05:19:40.928Z,34.15
2022-11-24T05:22:07.543Z,33.91
2022-11-24T05:24:34.116Z,33.62
2022-11-24T05:27:00.806Z,33.89
2022-11-24T05:29:27.354Z,34.05
2022-11-24T05:31:53.920Z,33.57
2022-11-24T05:34:20.760Z,33.82
2022-11-24T05:36:54.004Z,33.88
2022-11-24T05:39:21.341Z,33.84
2022-11-24T05:41:47.962Z,33.42
2022-11-24T05:44:15.820Z,33.23
2022-11-24T05:46:42.531Z,33.49
2022-11-24T05:49:09.170Z,33.67
2022-11-24T05:51:35.851Z,33.21
2022-11-24T05:54:02.679Z,33.38
2022-11-24T05:56:31.496Z,33.32
2022-11-24T05:58:58.091Z,33.22
2022-11-24T06:01:24.630Z,33.43
2022-11-24T06:03:51.594Z,33.12
2022-11-24T06:06:18.117Z,32.70
2022-11-24T06:08:44.982Z,32.82
2022-11-24T06:11:20.401Z,32.71
2022-11-24T06:13:48.526Z,33.31
2022-11-24T06:16:15.684Z,32.52
2022-11-24T06:18:42.375Z,32.88
2022-11-24T06:21:11.311Z,32.67
2022-11-24T06:23:38.594Z,33.03
2022-11-24T06:26:05.266Z,32.61
2022-11-24T06:28:31.902Z,32.92
2022-11-24T06:31:02.647Z,32.40
2022-11-24T06:33:34.034Z,32.71
2022-11-24T06:36:02.216Z,33.06
2022-11-24T06:38:29.205Z,32.87
2022-11-24T06:41:12.919Z,32.37
2022-11-24T06:43:39.617Z,32.81
2022-11-24T06:46:06.566Z,32.43
2022-11-24T06:48:33.329Z,32.50
2022-11-24T06:51:04.849Z,32.48
2022-11-24T06:53:38.620Z,32.39
2022-11-24T06:56:15.782Z,32.47
2022-11-24T06:58:44.649Z,32.66
2022-11-24T07:01:15.910Z,32.65
2022-11-24T07:03:43.035Z,32.46
2022-11-24T07:06:09.701Z,32.35
2022-11-24T07:08:36.331Z,32.25
2022-11-24T07:11:07.522Z,32.45
2022-11-24T07:13:35.671Z,32.55
2022-11-24T07:16:22.255Z,31.96
2022-11-24T07:18:53.931Z,32.01
2022-11-24T07:21:22.015Z,32.17
2022-11-24T07:23:58.067Z,32.00
2022-11-24T07:26:25.734Z,32.36
2022-11-24T07:28:52.685Z,32.08
2022-11-24T07:31:21.241Z,32.28
2022-11-24T07:33:52.569Z,31.84
2022-11-24T07:36:19.296Z,32.37
2022-11-24T07:38:46.242Z,32.06
2022-11-24T07:41:14.498Z,31.74
2022-11-24T07:43:41.088Z,32.04
2022-11-24T07:46:11.501Z,32.34
2022-11-24T07:48:38.166Z,32.11
2022-11-24T07:51:05.174Z,32.15
2022-11-24T07:53:34.065Z,31.94
2022-11-24T07:56:01.963Z,32.10
2022-11-24T07:58:33.282Z,31.82
2022-11-24T08:01:00.915Z,31.91
2022-11-24T08:03:27.986Z,31.81
2022-11-24T08:08:46.950Z,31.96
2022-11-24T08:11:15.765Z,32.11
2022-11-24T08:13:43.064Z,31.78
2022-11-24T08:16:18.171Z,32.21
2022-11-24T08:18:49.694Z,31.63
2022-11-24T08:21:16.260Z,32.05
2022-11-24T08:23:42.853Z,32.01
2022-11-24T08:26:13.742Z,32.27
2022-11-24T08:28:40.267Z,32.02
2022-11-24T08:31:09.800Z,32.30
2022-11-24T08:33:36.717Z,32.51
2022-11-24T08:36:04.857Z,32.40
2022-11-24T08:38:31.505Z,32.09
2022-11-24T08:41:08.398Z,32.57
2022-11-24T08:43:35.557Z,32.29
2022-11-24T08:46:04.067Z,32.42
2022-11-24T08:48:30.901Z,32.59
2022-11-24T08:50:59.308Z,32.33
2022-11-24T08:53:26.035Z,32.69
2022-11-24T08:55:52.570Z,32.72
2022-11-24T08:58:20.213Z,32.49
2022-11-24T09:00:46.801Z,32.84
2022-11-24T09:03:13.457Z,32.56
2022-11-24T09:05:55.739Z,32.29
2022-11-24T09:08:22.337Z,32.43
2022-11-24T09:10:48.878Z,32.79
2022-11-24T09:13:15.516Z,32.31
2022-11-24T09:15:42.120Z,32.33
2022-11-24T09:18:09.054Z,32.69
2022-11-24T09:20:35.579Z,32.43
2022-11-24T09:23:02.215Z,32.64
2022-11-24T09:25:28.803Z,32.72
2022-11-24T09:27:56.417Z,33.08
2022-11-24T09:30:23.285Z,32.86
2022-11-24T09:32:49.896Z,32.54
2022-11-24T09:35:16.550Z,32.95
2022-11-24T09:37:45.072Z,33.30
2022-11-24T09:40:16.493Z,32.85
2022-11-24T09:42:53.405Z,33.16
2022-11-24T09:45:57.021Z,33.09
2022-11-24T09:48:23.107Z,32.71
2022-11-24T09:50:49.897Z,33.23
2022-11-24T09:53:32.272Z,32.86
2022-11-24T09:56:04.326Z,33.19
2022-11-24T09:58:38.787Z,33.16
2022-11-24T10:01:15.988Z,33.36
2022-11-24T10:03:44.751Z,33.16
2022-11-24T10:06:41.026Z,33.32
2022-11-24T10:09:34.106Z,33.02
2022-11-24T10:12:27.743Z,33.67
2022-11-24T10:15:24.422Z,33.45
2022-11-24T10:18:18.918Z,33.71
2022-11-24T10:21:12.788Z,33.45
2022-11-24T10:23:58.049Z,33.69
2022-11-24T10:26:30.214Z,33.63
2022-11-24T10:28:56.972Z,33.65
2022-11-24T10:31:30.546Z,33.76
2022-11-24T10:34:13.778Z,33.91
2022-11-24T10:36:49.425Z,33.89
2022-11-24T10:39:21.702Z,33.22
2022-11-24T10:41:58.268Z,33.30
2022-11-24T10:44:25.094Z,33.32
2022-11-24T10:46:52.365Z,33.84
2022-11-24T10:49:24.193Z,33.48
2022-11-24T10:52:11.833Z,33.33
2022-11-24T10:54:53.874Z,33.96
2022-11-24T10:57:37.731Z,33.54
2022-11-24T11:00:24.374Z,33.49
2022-11-24T11:03:11.336Z,34.04
2022-11-24T11:05:43.760Z,33.62
2022-11-24T11:08:30.295Z,34.04
2022-11-24T11:11:28.085Z,33.62
2022-11-24T11:14:04.216Z,33.48
2022-11-24T11:16:52.610Z,33.66
2022-11-24T11:19:50.097Z,34.04
2022-11-24T11:22:29.274Z,33.55
2022-11-24T11:25:06.079Z,33.67
2022-11-24T11:27:32.824Z,34.09
2022-11-24T11:36:11.332Z,33.80
2022-11-24T11:38:39.499Z,34.39
2022-11-24T11:41:06.823Z,34.44
2022-11-24T11:43:35.704Z,34.38
2022-11-24T11:46:05.884Z,34.15
2022-11-24T11:48:42.698Z,34.11
2022-11-24T11:51:25.587Z,34.33
2022-11-24T11:53:58.404Z,34.43
2022-11-24T11:56:34.688Z,34.33
2022-11-24T11:59:23.109Z,34.29
2022-11-24T12:01:49.627Z,33.79
2022-11-24T12:04:39.226Z,34.43
2022-11-24T12:07:47.687Z,34.58
2022-11-24T12:10:17.696Z,34.17
2022-11-24T12:13:05.570Z,34.21
2022-11-24T12:15:42.275Z,34.59
2022-11-24T12:19:02.914Z,34.75
2022-11-24T12:21:57.597Z,34.66
2022-11-24T12:24:35.152Z,34.76
2022-11-24T12:27:10.580Z,34.24
2022-11-24T12:29:59.585Z,34.37
2022-11-24T12:32:38.874Z,34.53
2022-11-24T12:35:43.049Z,34.37
2022-11-24T12:38:25.377Z,34.91
2022-11-24T12:43:52.702Z,34.87
2022-11-24T12:46:21.418Z,34.83
2022-11-24T12:49:13.343Z,34.60
2022-11-24T12:51:43.014Z,34.41
2022-11-24T12:54:13.958Z,34.43
2022-11-24T12:56:45.458Z,34.93
2022-11-24T12:59:32.164Z,34.56
2022-11-24T13:02:01.884Z,34.57
2022-11-24T13:04:36.298Z,34.85
2022-11-24T13:07:10.922Z,34.67
2022-11-24T13:09:38.250Z,34.97
2022-11-24T13:12:12.470Z,35.09
2022-11-24T13:14:43.337Z,35.32
2022-11-24T13:17:42.125Z,35.50
2022-11-24T13:20:21.186Z,35.30
2022-11-24T13:22:53.486Z,35.29
2022-11-24T13:25:31.074Z,35.35
2022-11-24T13:28:02.033Z,35.15
2022-11-24T13:30:34.705Z,35.25
2022-11-24T13:33:16.920Z,35.03
2022-11-24T13:36:02.474Z,35.04
2022-11-24T13:38:42.130Z,34.90
2022-11-24T13:41:27.622Z,35.03
2022-11-24T13:44:13.834Z,35.30
2022-11-24T13:47:05.316Z,35.05
2022-11-24T13:49:39.642Z,34.80
2022-11-24T13:52:34.570Z,35.01
2022-11-24T13:55:28.609Z,35.01
2022-11-24T13:57:58.726Z,35.12
2022-11-24T14:00:55.498Z,35.21
2022-11-24T14:03:38.842Z,35.07
2022-11-24T14:06:06.524Z,35.44
2022-11-24T14:08:36.046Z,35.25
2022-11-24T14:11:03.757Z,35.39
2022-11-24T14:13:32.317Z,35.33
2022-11-24T14:16:17.671Z,35.47
2022-11-24T14:18:46.585Z,35.41
2022-11-24T14:21:27.044Z,35.44
2022-11-24T14:24:08.461Z,35.70
2022-11-24T14:26:37.951Z,34.97
2022-11-24T14:29:04.422Z,35.08
2022-11-24T14:31:32.484Z,35.33
2022-11-24T14:34:29.301Z,35.31
2022-11-24T14:36:57.293Z,35.44
2022-11-24T14:39:25.998Z,35.64
2022-11-24T14:42:04.982Z,35.47
2022-11-24T14:44:35.233Z,35.43
2022-11-24T14:47:04.186Z,35.21
2022-11-24T14:49:31.739Z,35.59
2022-11-24T14:52:11.266Z,35.33
2022-11-24T14:54:45.914Z,35.60
2022-11-24T14:57:32.239Z,35.54
2022-11-24T15:00:21.400Z,35.45
2022-11-24T15:02:53.363Z,35.17
2022-11-24T15:05:21.638Z,35.54
2022-11-24T15:07:50.530Z,35.46
2022-11-24T15:10:20.585Z,35.52
2022-11-24T15:12:53.919Z,35.48
2022-11-24T15:15:23.386Z,35.23
2022-11-24T15:17:53.186Z,35.59
2022-11-24T15:20:30.298Z,35.01
2022-11-24T15:23:27.427Z,35.29
2022-11-24T15:25:57.805Z,35.00
2022-11-24T15:28:25.957Z,35.16
2022-11-24T15:31:09.773Z,35.35
2022-11-24T15:33:36.391Z,35.17
2022-11-24T15:36:03.079Z,35.25
2022-11-24T15:38:29.859Z,35.19
2022-11-24T15:40:59.744Z,35.24
2022-11-24T15:43:39.148Z,35.47
2022-11-24T15:46:06.488Z,35.47
2022-11-24T15:48:33.174Z,35.44
2022-11-24T15:51:02.240Z,35.25
2022-11-24T15:53:34.060Z,35.39
2022-11-24T15:56:02.589Z,35.27
2022-11-24T15:58:29.154Z,35.29
2022-11-24T16:00:55.908Z,35.33
2022-11-24T16:06:24.939Z,34.97
2022-11-24T16:08:52.814Z,35.39
2022-11-24T16:11:19.660Z,35.29
2022-11-24T16:13:51.935Z,35.27
2022-11-24T16:16:19.484Z,35.30
2022-11-24T16:18:46.348Z,35.36
2022-11-24T16:21:13.132Z,35.28
2022-11-24T16:23:39.821Z,35.14
2022-11-24T16:26:07.110Z,34.97
2022-11-24T16:28:33.749Z,35.19
2022-11-24T16:31:00.392Z,35.30
2022-11-24T16:33:29.886Z,35.28
2022-11-24T16:35:56.620Z,35.37
2022-11-24T16:38:23.198Z,35.09
2022-11-24T16:40:54.001Z,35.43
2022-11-24T16:43:20.787Z,35.05
2022-11-24T16:46:16.958Z,35.08
2022-11-24T16:48:44.842Z,35.27
2022-11-24T16:51:12.063Z,35.40
2022-11-24T16:53:38.791Z,35.41
2022-11-24T16:56:05.722Z,35.40
2022-11-24T16:58:32.534Z,35.25
2022-11-24T17:01:10.411Z,35.06
2022-11-24T17:03:37.885Z,35.34
2022-11-24T17:06:09.869Z,35.18
2022-11-24T17:08:39.706Z,35.06
2022-11-24T17:11:16.257Z,34.98
2022-11-24T17:13:43.921Z,35.32
2022-11-24T17:16:12.619Z,35.17
2022-11-24T17:18:39.992Z,35.06
2022-11-24T17:21:10.097Z,35.17
2022-11-24T17:23:37.412Z,35.56
2022-11-24T17:26:05.914Z,35.03
2022-11-24T17:28:32.577Z,35.33
2022-11-24T17:30:59.135Z,34.96
2022-11-24T17:33:28.116Z,35.18
2022-11-24T17:35:54.651Z,35.17
2022-11-24T17:38:21.218Z,35.11
2022-11-24T17:40:48.017Z,35.21
2022-11-24T17:43:15.502Z,35.03
2022-11-24T17:45:42.351Z,34.99
2022-11-24T17:48:09.092Z,35.14
2022-11-24T17:50:35.957Z,35.00
2022-11-24T17:53:02.719Z,34.92
2022-11-24T17:55:29.265Z,34.92
2022-11-24T17:57:56.668Z,34.87
2022-11-24T18:00:23.577Z,34.67
2022-11-24T18:02:50.335Z,34.79
2022-11-24T18:05:16.939Z,34.58
2022-11-24T18:07:43.635Z,34.61
2022-11-24T18:10:11.004Z,34.50
2022-11-24T18:12:37.796Z,34.60
2022-11-24T18:15:04.739Z,34.48
2022-11-24T18:17:31.309Z,34.47
2022-11-24T18:19:58.264Z,34.40
2022-11-24T18:22:49.991Z,34.34
2022-11-24T18:25:11.884Z,34.43
2022-11-24T18:27:38.533Z,34.21
2022-11-24T18:30:05.954Z,34.37
2022-11-24T18:32:32.512Z,34.37
2022-11-24T18:34:59.181Z,34.42
2022-11-24T18:37:25.755Z,34.46
2022-11-24T18:39:52.569Z,34.55
2022-11-24T18:42:20.800Z,34.42
2022-11-24T18:44:52.500Z,34.46
2022-11-24T18:47:20.460Z,34.45
2022-11-24T18:49:49.043Z,34.36
2022-11-24T18:52:15.669Z,34.33
2022-11-24T18:54:42.265Z,34.32
2022-11-24T18:57:09.280Z,34.40
2022-11-24T18:59:36.709Z,34.33
2022-11-24T19:02:03.313Z,34.42
2022-11-24T19:04:30.039Z,34.27
2022-11-24T19:06:56.725Z,34.40
2022-11-24T19:09:25.357Z,34.49
2022-11-24T19:11:51.950Z,34.14
2022-11-24T19:14:19.031Z,34.27
2022-11-24T19:16:48.773Z,34.00
2022-11-24T19:19:16.896Z,34.16
2022-11-24T19:21:44.118Z,33.96
2022-11-24T19:24:11.099Z,34.11
2022-11-24T19:26:38.382Z,34.38
2022-11-24T19:29:06.472Z,34.27
2022-11-24T19:31:34.195Z,34.96
2022-11-24T19:34:02.804Z,35.40
2022-11-24T19:36:30.889Z,35.51
2022-11-24T19:38:58.362Z,35.88
2022-11-24T19:41:27.818Z,35.88
2022-11-24T19:43:57.874Z,36.41
2022-11-24T19:46:27.182Z,36.18
2022-11-24T19:48:55.397Z,36.24
2022-11-24T19:51:25.428Z,36.20
2022-11-24T19:53:52.884Z,36.48
2022-11-24T19:56:30.412Z,36.62
2022-11-24T19:58:57.304Z,36.37
2022-11-24T20:01:31.747Z,36.26
2022-11-24T20:04:04.461Z,36.76
2022-11-24T20:06:36.766Z,36.81
2022-11-24T20:09:05.391Z,36.44
2022-11-24T20:11:32.079Z,36.51
2022-11-24T20:13:59.771Z,36.66
2022-11-24T20:16:29.630Z,36.50
2022-11-24T20:19:07.500Z,36.64
2022-11-24T20:21:36.246Z,36.63
2022-11-24T20:24:03.908Z,36.82
2022-11-24T20:26:32.939Z,36.71
2022-11-24T20:29:00.139Z,36.89
2022-11-24T20:31:32.132Z,36.83
2022-11-24T20:34:00.192Z,36.89
2022-11-24T20:36:28.797Z,36.82
2022-11-24T20:38:55.922Z,36.79
2022-11-24T20:41:25.432Z,37.28
2022-11-24T20:43:53.849Z,36.86
2022-11-24T20:46:22.398Z,37.05
2022-11-24T20:48:49.049Z,36.92
2022-11-24T20:51:21.475Z,37.10
2022-11-24T20:53:53.885Z,37.31
2022-11-24T20:56:26.200Z,37.33
2022-11-24T20:58:53.211Z,37.24
2022-11-24T21:01:25.541Z,37.21
2022-11-24T21:03:57.511Z,37.00
2022-11-24T21:06:24.982Z,37.49
2022-11-24T21:08:52.068Z,37.25
2022-11-24T21:11:19.723Z,37.09
2022-11-24T21:13:48.755Z,37.49
2022-11-24T21:16:18.168Z,37.38
2022-11-24T21:18:46.484Z,37.13
2022-11-24T21:21:14.149Z,37.17
2022-11-24T21:23:40.908Z,37.77
2022-11-24T21:26:14.808Z,37.37
2022-11-24T21:28:44.690Z,37.19
2022-11-24T21:31:14.423Z,37.44
2022-11-24T21:33:42.206Z,37.43
2022-11-24T21:36:08.964Z,37.72
2022-11-24T21:38:35.587Z,37.59
2022-11-24T21:41:06.961Z,37.65
2022-11-24T21:43:34.175Z,37.30
2022-11-24T21:46:06.025Z,37.86
2022-11-24T21:48:33.429Z,37.49
2022-11-24T21:51:01.576Z,37.59
2022-11-24T21:53:32.933Z,37.97
2022-11-24T21:56:01.301Z,37.36
2022-11-24T21:58:29.339Z,37.38
2022-11-24T22:01:02.630Z,37.79
2022-11-24T22:03:29.220Z,37.87
2022-11-24T22:05:56.999Z,37.97
2022-11-24T22:08:24.612Z,37.79
2022-11-24T22:10:51.712Z,37.63
2022-11-24T22:13:18.936Z,37.62
2022-11-24T22:15:46.771Z,38.05
2022-11-24T22:18:13.368Z,37.70
2022-11-24T22:20:39.971Z,38.16
2022-11-24T22:23:07.097Z,38.34
2022-11-24T22:25:33.669Z,37.99
2022-11-24T22:28:00.293Z,38.42
2022-11-24T22:30:27.297Z,38.43
2022-11-24T22:32:54.392Z,38.02
2022-11-24T22:35:20.977Z,38.17
2022-11-24T22:37:48.064Z,38.70
2022-11-24T22:40:15.438Z,38.92
2022-11-24T22:42:42.159Z,38.95
2022-11-24T22:45:10.040Z,38.80
2022-11-24T22:47:36.600Z,39.16
2022-11-24T22:50:03.544Z,39.12
2022-11-24T22:52:30.138Z,39.01
2022-11-24T22:54:56.673Z,38.77
2022-11-24T22:57:23.257Z,38.86
2022-11-24T22:59:49.808Z,38.74
2022-11-24T23:02:16.675Z,39.00
2022-11-24T23:04:43.196Z,39.00
2022-11-24T23:07:09.865Z,38.69
2022-11-24T23:09:36.846Z,38.78
2022-11-24T23:12:03.470Z,38.78
2022-11-24T23:14:30.664Z,38.33
2022-11-24T23:16:57.304Z,38.71
2022-11-24T23:19:23.820Z,38.52
2022-11-24T23:21:51.123Z,38.64
2022-11-24T23:24:17.939Z,38.54
2022-11-24T23:26:44.640Z,38.30
2022-11-24T23:29:11.685Z,38.25
2022-11-24T23:31:40.088Z,38.39
2022-11-24T23:34:07.116Z,38.05
2022-11-24T23:36:34.110Z,38.16
2022-11-24T23:39:02.522Z,37.86
2022-11-24T23:41:30.010Z,38.21
2022-11-24T23:43:56.675Z,37.92
2022-11-24T23:46:24.809Z,38.13
2022-11-24T23:48:52.864Z,38.20
2022-11-24T23:51:21.966Z,37.71
2022-11-24T23:53:50.326Z,37.53
2022-11-24T23:56:19.764Z,37.89
2022-11-24T23:58:46.909Z,37.74
